Terminal Aerodrome Forecast
Issued by NWS

Home | Current Version | Previous Version | Text Only | Print | Product List | Glossary On
Versions: 1 2 3 4 5 6 7 8 9 10 11 12 13 14 15 16 17 18
000
FTUS46 KLOX 032300 RRA
TAFSBA
TAF
KSBA 032350Z 0400/0424 26012G20KT P6SM SKC
     FM040300 28005KT P6SM SKC
     FM040500 08006KT P6SM SCT015
     FM041000 11003KT P6SM OVC012
     FM041600 17005KT P6SM BKN017
     FM041900 26012G20KT P6SM SCT022=

USA.gov is the U.S. government's official web portal to all federal, state and local government web resources and services.